^^

..:: Storico WU ::..




Lo storico viene creato da WUnderground con i dati che la stazione Meteomincio invia al loro server. L' aggiornamento viene fatto ogni 5 minuti circa, tuttavia possono esserci intervalli pił ampi a causa di errori, interruzioni di servizio o problemi nell' invio tramite FTP.


Storico stazione MeteoMincio
Giorno Sommario per Dicembre 12, 2022 Unità:  Inglese    Metrico   Entrambi
Giorno Settimana Mese Anno
  Max: Min: Media:
Temperatura: 33.8 °F 28.4 °F 30.7 °F
Dew Point: 32 °F 28.4 °F 29.8 °F
Umidità: 97% 95% 96%
Velocità vento: 6.2mph 0mph 2.5mph
Raffica: 9.3mph - -
Direzione- - SSE
Pressione: 29.9 in 29.7 in -
Precipitazioni: 0.01 in    
 
 
Tabulato Dati per Dicembre 12, 2022
Ora Temperatura Dew Point Pressione Direzione Velocità vento Raffica Umidità Intensità pioggia (oraria) Info solare Situazione
00:04 33.8 °F 32 °F 29.7 in Calm   1.2 mph 95% 0 in 0.00 W/m2 unknown
00:09 33.8 °F 32 °F 29.7 in WNW 0.6 mph 1.2 mph 95% 0 in 0.00 W/m2 unknown
00:14 33.8 °F 32 °F 29.7 in WNW 1.2 mph 1.9 mph 95% 0 in 0.00 W/m2 unknown
00:19 33.8 °F 32 °F 29.7 in WNW 1.2 mph 2.5 mph 95% 0 in 0.00 W/m2 unknown
00:24 33.8 °F 32 °F 29.7 in Calm   1.9 mph 95% 0 in 0.00 W/m2 unknown
00:29 33.8 °F 32 °F 29.7 in WNW 0.6 mph 1.2 mph 95% 0 in 0.00 W/m2 unknown
00:34 32 °F 32 °F 29.7 in WNW 0.6 mph 1.2 mph 95% 0 in 0.00 W/m2 unknown
00:39 32 °F 32 °F 29.7 in WNW 0.6 mph 1.2 mph 95% 0 in 0.00 W/m2 unknown
00:44 32 °F 32 °F 29.7 in Calm   1.2 mph 95% 0 in 0.00 W/m2 unknown
00:49 32 °F 32 °F 29.7 in Calm     95% 0 in 0.00 W/m2 unknown
00:54 32 °F 30.2 °F 29.7 in Calm     95% 0 in 0.00 W/m2 unknown
00:59 32 °F 30.2 °F 29.7 in WNW 0.6 mph 1.2 mph 95% 0 in 0.00 W/m2 unknown
01:04 32 °F 30.2 °F 29.7 in WNW 1.2 mph 1.2 mph 95% 0 in 0.00 W/m2 unknown
01:09 32 °F 30.2 °F 29.7 in Calm   1.2 mph 95% 0 in 0.00 W/m2 unknown
01:14 32 °F 30.2 °F 29.7 in WNW 1.2 mph 2.5 mph 95% 0 in 0.00 W/m2 unknown
01:19 32 °F 30.2 °F 29.7 in WNW 1.2 mph 1.9 mph 95% 0 in 0.00 W/m2 unknown
01:24 32 °F 30.2 °F 29.7 in West 1.9 mph 2.5 mph 95% 0 in 0.00 W/m2 unknown
01:29 32 °F 30.2 °F 29.7 in WNW 2.5 mph 3.7 mph 95% 0 in 0.00 W/m2 unknown
01:34 32 °F 30.2 °F 29.7 in NW 4.3 mph 6.2 mph 95% 0 in 0.00 W/m2 unknown
01:39 32 °F 30.2 °F 29.7 in NW 4.3 mph 6.2 mph 95% 0 in 0.00 W/m2 unknown
01:44 32 °F 30.2 °F 29.7 in WNW 3.7 mph 6.2 mph 95% 0 in 0.00 W/m2 unknown
01:49 32 °F 30.2 °F 29.7 in West 3.7 mph 5 mph 95% 0 in 0.00 W/m2 unknown
01:54 32 °F 30.2 °F 29.7 in WNW 3.1 mph 5 mph 95% 0 in 0.00 W/m2 unknown
01:59 32 °F 30.2 °F 29.7 in WNW 3.1 mph 3.7 mph 95% 0 in 0.00 W/m2 unknown
02:04 30.2 °F 30.2 °F 29.7 in WNW 1.9 mph 3.7 mph 95% 0 in 0.00 W/m2 unknown
02:09 30.2 °F 30.2 °F 29.7 in WSW 2.5 mph 3.7 mph 95% 0 in 0.00 W/m2 unknown
02:14 30.2 °F 28.4 °F 29.8 in West 2.5 mph 3.7 mph 95% 0 in 0.00 W/m2 unknown
02:19 30.2 °F 28.4 °F 29.8 in WSW 3.1 mph 3.7 mph 95% 0 in 0.00 W/m2 unknown
02:24 30.2 °F 28.4 °F 29.8 in WSW 3.1 mph 3.7 mph 95% 0 in 0.00 W/m2 unknown
02:29 30.2 °F 28.4 °F 29.8 in WSW 3.1 mph 3.7 mph 95% 0 in 0.00 W/m2 unknown
02:34 30.2 °F 28.4 °F 29.8 in WSW 2.5 mph 3.7 mph 95% 0 in 0.00 W/m2 unknown
02:39 30.2 °F 28.4 °F 29.8 in WSW 1.9 mph 3.7 mph 95% 0 in 0.00 W/m2 unknown
02:44 30.2 °F 28.4 °F 29.8 in WSW 1.9 mph 3.1 mph 95% 0 in 0.00 W/m2 unknown
02:49 30.2 °F 28.4 °F 29.8 in NW 2.5 mph 3.7 mph 95% 0 in 0.00 W/m2 unknown
02:54 30.2 °F 28.4 °F 29.8 in NE 2.5 mph 3.7 mph 95% 0 in 0.00 W/m2 unknown
02:59 28.4 °F 28.4 °F 29.8 in Calm   3.1 mph 95% 0 in 0.00 W/m2 unknown
03:04 28.4 °F 28.4 °F 29.8 in Calm   1.2 mph 95% 0 in 0.00 W/m2 unknown
03:09 28.4 °F 28.4 °F 29.8 in Calm     95% 0 in 0.00 W/m2 unknown
03:14 28.4 °F 28.4 °F 29.8 in Calm     95% 0 in 0.00 W/m2 unknown
03:19 28.4 °F 28.4 °F 29.8 in NE 1.2 mph 1.9 mph 95% 0 in 0.00 W/m2 unknown
03:24 28.4 °F 28.4 °F 29.8 in WNW 3.1 mph 3.7 mph 95% 0 in 0.00 W/m2 unknown
03:29 28.4 °F 28.4 °F 29.8 in West 2.5 mph 3.7 mph 95% 0 in 0.00 W/m2 unknown
03:34 28.4 °F 28.4 °F 29.8 in West 3.1 mph 5 mph 95% 0 in 0.00 W/m2 unknown
03:39 28.4 °F 28.4 °F 29.8 in West 3.1 mph 5 mph 95% 0 in 0.00 W/m2 unknown
03:44 28.4 °F 28.4 °F 29.8 in West 4.3 mph 6.2 mph 95% 0 in 0.00 W/m2 unknown
03:49 30.2 °F 28.4 °F 29.8 in West 3.7 mph 6.2 mph 95% 0 in 0.00 W/m2 unknown
03:54 30.2 °F 28.4 °F 29.8 in West 4.3 mph 6.8 mph 96% 0 in 0.00 W/m2 unknown
03:59 30.2 °F 28.4 °F 29.8 in West 6.2 mph 9.3 mph 96% 0 in 0.00 W/m2 unknown
04:04 30.2 °F 30.2 °F 29.8 in West 5 mph 8.7 mph 96% 0 in 0.00 W/m2 unknown
04:09 30.2 °F 30.2 °F 29.8 in West 5 mph 6.8 mph 96% 0 in 0.00 W/m2 unknown
04:14 30.2 °F 30.2 °F 29.8 in West 5 mph 5.6 mph 96% 0 in 0.00 W/m2 unknown
04:19 30.2 °F 30.2 °F 29.8 in WSW 5.6 mph 6.8 mph 96% 0 in 0.00 W/m2 unknown
04:24 30.2 °F 30.2 °F 29.8 in West 5 mph 6.8 mph 96% 0 in 0.00 W/m2 unknown
04:29 32 °F 30.2 °F 29.8 in West 4.3 mph 6.2 mph 96% 0 in 0.00 W/m2 unknown
04:34 30.2 °F 30.2 °F 29.8 in West 5 mph 6.8 mph 96% 0 in 0.00 W/m2 unknown
04:39 30.2 °F 30.2 °F 29.8 in West 4.3 mph 6.8 mph 96% 0 in 0.00 W/m2 unknown
04:44 30.2 °F 30.2 °F 29.8 in West 5.6 mph 6.8 mph 96% 0 in 0.00 W/m2 unknown
04:49 30.2 °F 30.2 °F 29.8 in West 3.7 mph 6.2 mph 96% 0 in 0.00 W/m2 unknown
04:54 30.2 °F 30.2 °F 29.8 in WNW 3.7 mph 6.2 mph 96% 0 in 0.00 W/m2 unknown
04:59 30.2 °F 30.2 °F 29.8 in West 5 mph 6.2 mph 96% 0 in 0.00 W/m2 unknown
05:04 30.2 °F 30.2 °F 29.8 in WNW 5 mph 6.2 mph 96% 0 in 0.00 W/m2 unknown
05:09 30.2 °F 30.2 °F 29.8 in West 3.1 mph 5 mph 96% 0 in 0.00 W/m2 unknown
05:14 30.2 °F 30.2 °F 29.8 in WNW 3.1 mph 5 mph 96% 0 in 0.00 W/m2 unknown
05:19 30.2 °F 30.2 °F 29.8 in NW 3.1 mph 3.7 mph 96% 0 in 0.00 W/m2 unknown
05:24 30.2 °F 30.2 °F 29.8 in NNW 3.1 mph 3.7 mph 96% 0 in 0.00 W/m2 unknown
05:29 30.2 °F 30.2 °F 29.8 in NW 3.1 mph 3.7 mph 96% 0 in 0.00 W/m2 unknown
05:34 30.2 °F 30.2 °F 29.8 in NNW 1.2 mph 3.1 mph 96% 0 in 0.00 W/m2 unknown
05:39 30.2 °F 30.2 °F 29.8 in North 3.1 mph 3.7 mph 96% 0 in 0.00 W/m2 unknown
05:44 30.2 °F 30.2 °F 29.8 in NW 1.2 mph 3.7 mph 96% 0 in 0.00 W/m2 unknown
05:49 30.2 °F 30.2 °F 29.8 in NNW 1.2 mph 3.7 mph 96% 0 in 0.00 W/m2 unknown
05:54 30.2 °F 30.2 °F 29.8 in NNW 1.2 mph 3.1 mph 96% 0 in 0.00 W/m2 unknown
05:59 30.2 °F 30.2 °F 29.8 in NNW 1.2 mph 1.9 mph 96% 0 in 0.00 W/m2 unknown
06:04 30.2 °F 30.2 °F 29.8 in West 1.2 mph 2.5 mph 96% 0 in 0.00 W/m2 unknown
06:09 30.2 °F 30.2 °F 29.8 in WSW 2.5 mph 3.7 mph 96% 0 in 0.00 W/m2 unknown
06:14 30.2 °F 30.2 °F 29.8 in West 2.5 mph 3.7 mph 96% 0 in 0.00 W/m2 unknown
06:19 30.2 °F 30.2 °F 29.8 in WNW 3.1 mph 3.7 mph 96% 0 in 0.00 W/m2 unknown
06:24 30.2 °F 30.2 °F 29.8 in NW 3.7 mph 5 mph 96% 0 in 0.00 W/m2 unknown
06:29 30.2 °F 28.4 °F 29.8 in WNW 1.9 mph 5 mph 96% 0 in 0.00 W/m2 unknown
06:34 30.2 °F 28.4 °F 29.8 in NW 1.2 mph 3.1 mph 96% 0 in 0.00 W/m2 unknown
06:39 30.2 °F 28.4 °F 29.8 in WNW 3.1 mph 5 mph 96% 0 in 0.00 W/m2 unknown
06:44 30.2 °F 28.4 °F 29.8 in WNW 2.5 mph 5 mph 96% 0 in 0.00 W/m2 unknown
06:49 30.2 °F 28.4 °F 29.8 in WNW 2.5 mph 3.7 mph 96% 0 in 0.00 W/m2 unknown
06:54 30.2 °F 28.4 °F 29.8 in NW 1.9 mph 3.7 mph 96% 0 in 0.00 W/m2 unknown
06:59 30.2 °F 28.4 °F 29.8 in NNW 2.5 mph 3.7 mph 96% 0 in 0.00 W/m2 unknown
07:04 30.2 °F 28.4 °F 29.8 in North 1.9 mph 3.1 mph 96% 0 in 0.00 W/m2 unknown
07:09 30.2 °F 28.4 °F 29.8 in NNE 2.5 mph 3.7 mph 96% 0 in 0.00 W/m2 unknown
07:14 30.2 °F 28.4 °F 29.8 in NNW 2.5 mph 3.7 mph 96% 0 in 0.00 W/m2 unknown
07:19 30.2 °F 30.2 °F 29.8 in NW 3.1 mph 3.7 mph 96% 0 in 0.00 W/m2 unknown
07:24 30.2 °F 30.2 °F 29.8 in NW 3.1 mph 5 mph 96% 0 in 0.00 W/m2 unknown
07:29 30.2 °F 30.2 °F 29.8 in North 3.1 mph 4.3 mph 96% 0 in 0.00 W/m2 unknown
07:34 30.2 °F 30.2 °F 29.8 in NE 4.3 mph 6.2 mph 96% 0 in 0.00 W/m2 unknown
07:39 30.2 °F 28.4 °F 29.8 in NE 4.3 mph 6.2 mph 96% 0 in 0.00 W/m2 unknown
07:44 30.2 °F 28.4 °F 29.8 in NNE 5 mph 6.8 mph 96% 0 in 0.00 W/m2 unknown
07:49 30.2 °F 28.4 °F 29.8 in NE 6.2 mph 8.1 mph 96% 0 in 0.00 W/m2 unknown
07:54 30.2 °F 28.4 °F 29.8 in NNE 3.1 mph 8.1 mph 96% 0 in 0.00 W/m2 unknown
07:59 30.2 °F 28.4 °F 29.8 in NE 3.7 mph 5 mph 96% 0 in 5.00 W/m2 unknown
08:04 28.4 °F 28.4 °F 29.8 in NE 5.6 mph 6.8 mph 96% 0 in 5.00 W/m2 unknown
08:09 28.4 °F 28.4 °F 29.8 in East 4.3 mph 6.2 mph 96% 0 in 5.00 W/m2 unknown
08:14 28.4 °F 28.4 °F 29.8 in SE 3.1 mph 6.2 mph 96% 0 in 5.00 W/m2 unknown
08:19 28.4 °F 28.4 °F 29.8 in ESE 3.1 mph 3.7 mph 96% 0 in 7.00 W/m2 unknown
08:24 28.4 °F 28.4 °F 29.8 in ESE 2.5 mph 5 mph 96% 0 in 7.00 W/m2 unknown
08:29 28.4 °F 28.4 °F 29.8 in East 3.1 mph 5 mph 96% 0 in 23.00 W/m2 unknown
08:34 28.4 °F 28.4 °F 29.8 in ESE 2.5 mph 5 mph 96% 0 in 23.00 W/m2 unknown
08:39 28.4 °F 28.4 °F 29.8 in ESE 2.5 mph 3.7 mph 96% 0 in 26.00 W/m2 unknown
08:44 28.4 °F 28.4 °F 29.8 in NE 1.2 mph 3.1 mph 96% 0 in 30.00 W/m2 unknown
08:49 28.4 °F 28.4 °F 29.8 in East 1.9 mph 2.5 mph 96% 0 in 28.00 W/m2 unknown
08:54 28.4 °F 28.4 °F 29.8 in ESE 2.5 mph 3.7 mph 96% 0 in 26.00 W/m2 unknown
08:59 28.4 °F 28.4 °F 29.8 in ENE 1.9 mph 3.7 mph 96% 0 in 25.00 W/m2 unknown
09:04 28.4 °F 28.4 °F 29.9 in East 3.7 mph 5 mph 96% 0 in 19.00 W/m2 unknown
09:09 28.4 °F 28.4 °F 29.9 in East 3.1 mph 5 mph 96% 0 in 19.00 W/m2 unknown
09:14 28.4 °F 28.4 °F 29.9 in ESE 1.9 mph 3.7 mph 96% 0 in 25.00 W/m2 unknown
09:19 28.4 °F 28.4 °F 29.9 in ESE 1.2 mph 3.1 mph 96% 0 in 51.00 W/m2 unknown
09:24 28.4 °F 28.4 °F 29.9 in ESE 1.9 mph 3.7 mph 96% 0 in 47.00 W/m2 unknown
09:29 28.4 °F 28.4 °F 29.9 in East 1.9 mph 3.7 mph 96% 0 in 51.00 W/m2 unknown
09:34 28.4 °F 28.4 °F 29.9 in ESE 1.2 mph 3.1 mph 96% 0 in 46.00 W/m2 unknown
09:39 28.4 °F 28.4 °F 29.9 in East 1.2 mph 2.5 mph 96% 0 in 56.00 W/m2 unknown
09:44 28.4 °F 28.4 °F 29.9 in ENE 1.9 mph 3.7 mph 96% 0 in 30.00 W/m2 unknown
09:49 28.4 °F 28.4 °F 29.9 in ENE 1.9 mph 3.1 mph 96% 0 in 93.00 W/m2 unknown
09:54 28.4 °F 28.4 °F 29.9 in ENE 1.2 mph 2.5 mph 96% 0 in 93.00 W/m2 unknown
09:59 28.4 °F 28.4 °F 29.9 in ENE 1.2 mph 2.5 mph 96% 0 in 76.00 W/m2 unknown
10:04 28.4 °F 28.4 °F 29.9 in ESE 1.9 mph 3.7 mph 96% 0 in 72.00 W/m2 unknown
10:09 30.2 °F 28.4 °F 29.9 in ESE 1.9 mph 3.7 mph 96% 0 in 72.00 W/m2 unknown
10:14 30.2 °F 28.4 °F 29.9 in East 1.2 mph 3.7 mph 97% 0 in 72.00 W/m2 unknown
10:19 30.2 °F 28.4 °F 29.9 in East 1.2 mph 3.1 mph 96% 0 in 74.00 W/m2 unknown
10:24 30.2 °F 28.4 °F 29.9 in East 0.6 mph 1.9 mph 96% 0 in 70.00 W/m2 unknown
10:29 30.2 °F 28.4 °F 29.9 in NNW 1.2 mph 2.5 mph 97% 0 in 76.00 W/m2 unknown
10:34 30.2 °F 28.4 °F 29.9 in North 1.2 mph 2.5 mph 97% 0 in 77.00 W/m2 unknown
10:39 30.2 °F 28.4 °F 29.9 in ENE 1.2 mph 2.5 mph 97% 0 in 81.00 W/m2 unknown
10:44 30.2 °F 28.4 °F 29.9 in ENE 1.2 mph 2.5 mph 97% 0 in 79.00 W/m2 unknown
10:49 30.2 °F 30.2 °F 29.9 in ENE 1.2 mph 3.1 mph 97% 0 in 70.00 W/m2 unknown
10:54 30.2 °F 30.2 °F 29.9 in North 1.9 mph 3.7 mph 97% 0 in 70.00 W/m2 unknown
10:59 30.2 °F 30.2 °F 29.9 in East 1.9 mph 3.1 mph 97% 0 in 65.00 W/m2 unknown
11:04 30.2 °F 30.2 °F 29.9 in East 1.9 mph 2.5 mph 97% 0 in 65.00 W/m2 unknown
11:09 30.2 °F 30.2 °F 29.9 in NNE 3.1 mph 3.7 mph 97% 0 in 69.00 W/m2 unknown
11:14 30.2 °F 30.2 °F 29.9 in NNW 3.1 mph 3.7 mph 97% 0 in 76.00 W/m2 unknown
11:19 30.2 °F 30.2 °F 29.9 in NNW 1.9 mph 3.7 mph 97% 0 in 81.00 W/m2 unknown
11:24 30.2 °F 30.2 °F 29.9 in North 1.9 mph 3.1 mph 97% 0 in 91.00 W/m2 unknown
11:29 30.2 °F 30.2 °F 29.9 in NNW 1.9 mph 3.7 mph 97% 0 in 86.00 W/m2 unknown
11:34 30.2 °F 30.2 °F 29.9 in NE 1.9 mph 3.7 mph 97% 0 in 84.00 W/m2 unknown
11:39 30.2 °F 30.2 °F 29.9 in ENE 3.7 mph 5 mph 97% 0 in 84.00 W/m2 unknown
11:44 30.2 °F 30.2 °F 29.9 in ESE 3.7 mph 5 mph 97% 0 in 97.00 W/m2 unknown
11:49 30.2 °F 30.2 °F 29.9 in ESE 1.9 mph 5 mph 97% 0 in 100.00 W/m2 unknown
11:54 30.2 °F 30.2 °F 29.9 in SSE 1.2 mph 3.1 mph 97% 0 in 105.00 W/m2 unknown
11:59 30.2 °F 30.2 °F 29.9 in SSE 1.2 mph 3.1 mph 97% 0.01 in 105.00 W/m2 unknown
12:04 30.2 °F 30.2 °F 29.9 in SSE 1.2 mph 2.5 mph 97% 0.01 in 105.00 W/m2 unknown
12:09 30.2 °F 30.2 °F 29.9 in ESE 1.9 mph 3.7 mph 97% 0.01 in 100.00 W/m2 unknown
12:14 30.2 °F 30.2 °F 29.9 in ESE 2.5 mph 5 mph 97% 0.01 in 90.00 W/m2 unknown
12:19 30.2 °F 30.2 °F 29.9 in East 4.3 mph 6.2 mph 97% 0.01 in 90.00 W/m2 unknown
12:24 30.2 °F 30.2 °F 29.9 in ESE 4.3 mph 6.2 mph 97% 0.01 in 95.00 W/m2 unknown
12:29 30.2 °F 30.2 °F 29.9 in SSE 2.5 mph 6.2 mph 97% 0.01 in 98.00 W/m2 unknown
12:34 30.2 °F 30.2 °F 29.9 in East 2.5 mph 3.7 mph 97% 0.01 in 100.00 W/m2 unknown
12:39 30.2 °F 30.2 °F 29.9 in ESE 3.1 mph 3.7 mph 97% 0.01 in 93.00 W/m2 unknown
12:44 30.2 °F 30.2 °F 29.8 in ESE 4.3 mph 6.2 mph 97% 0.01 in 107.00 W/m2 unknown
12:49 30.2 °F 30.2 °F 29.8 in East 3.1 mph 6.2 mph 97% 0.01 in 107.00 W/m2 unknown
12:54 30.2 °F 30.2 °F 29.8 in ESE 3.1 mph 3.7 mph 97% 0.01 in 120.00 W/m2 unknown
12:59 30.2 °F 30.2 °F 29.8 in SE 3.1 mph 3.7 mph 97% 0.01 in 132.00 W/m2 unknown
13:04 30.2 °F 30.2 °F 29.8 in SSE 1.9 mph 3.7 mph 97% 0.01 in 128.00 W/m2 unknown
13:09 30.2 °F 30.2 °F 29.8 in North 1.9 mph 3.7 mph 97% 0 in 120.00 W/m2 unknown
13:14 30.2 °F 30.2 °F 29.8 in North 0.6 mph 3.1 mph 97% 0 in 120.00 W/m2 unknown
13:19 30.2 °F 30.2 °F 29.8 in NW 0.6 mph 1.9 mph 97% 0 in 100.00 W/m2 unknown
13:24 30.2 °F 30.2 °F 29.8 in ENE 1.2 mph 2.5 mph 97% 0 in 91.00 W/m2 unknown
13:29 30.2 °F 30.2 °F 29.8 in NE 1.2 mph 2.5 mph 97% 0 in 83.00 W/m2 unknown
13:34 30.2 °F 30.2 °F 29.8 in SE 3.1 mph 3.7 mph 97% 0 in 86.00 W/m2 unknown
13:39 30.2 °F 30.2 °F 29.8 in SE 2.5 mph 3.7 mph 97% 0 in 95.00 W/m2 unknown
13:44 30.2 °F 30.2 °F 29.8 in SE 3.1 mph 5 mph 97% 0 in 81.00 W/m2 unknown
13:49 30.2 °F 30.2 °F 29.8 in SE 3.1 mph 5 mph 97% 0 in 84.00 W/m2 unknown
13:54 30.2 °F 30.2 °F 29.8 in SE 2.5 mph 3.7 mph 97% 0 in 83.00 W/m2 unknown
13:59 30.2 °F 30.2 °F 29.8 in East 4.3 mph 5 mph 97% 0 in 79.00 W/m2 unknown
14:04 30.2 °F 28.4 °F 29.8 in ENE 3.1 mph 5 mph 97% 0 in 88.00 W/m2 unknown
14:09 30.2 °F 28.4 °F 29.8 in ENE 1.2 mph 3.1 mph 97% 0 in 88.00 W/m2 unknown
14:14 30.2 °F 28.4 °F 29.8 in East 1.9 mph 2.5 mph 97% 0 in 84.00 W/m2 unknown
14:19 30.2 °F 30.2 °F 29.8 in SE 2.5 mph 3.7 mph 97% 0 in 86.00 W/m2 unknown
14:24 30.2 °F 30.2 °F 29.8 in ENE 2.5 mph 3.7 mph 97% 0 in 83.00 W/m2 unknown
14:29 30.2 °F 30.2 °F 29.8 in ENE 2.5 mph 3.7 mph 97% 0 in 56.00 W/m2 unknown
14:34 30.2 °F 30.2 °F 29.8 in ENE 1.2 mph 3.1 mph 97% 0 in 54.00 W/m2 unknown
14:39 30.2 °F 30.2 °F 29.8 in ESE 4.3 mph 6.2 mph 97% 0 in 58.00 W/m2 unknown
14:44 30.2 °F 30.2 °F 29.8 in SE 2.5 mph 6.2 mph 97% 0 in 58.00 W/m2 unknown
14:49 30.2 °F 30.2 °F 29.8 in SE 2.5 mph 3.7 mph 97% 0 in 53.00 W/m2 unknown
14:54 30.2 °F 30.2 °F 29.8 in ESE 4.3 mph 6.2 mph 97% 0 in 40.00 W/m2 unknown
14:59 30.2 °F 30.2 °F 29.8 in ESE 3.1 mph 5 mph 97% 0 in 42.00 W/m2 unknown
15:04 30.2 °F 30.2 °F 29.8 in ESE 3.7 mph 6.8 mph 97% 0 in 42.00 W/m2 unknown
15:09 30.2 °F 30.2 °F 29.8 in ESE 5 mph 6.8 mph 97% 0 in 37.00 W/m2 unknown
15:14 30.2 °F 30.2 °F 29.8 in ESE 5.6 mph 6.8 mph 97% 0 in 37.00 W/m2 unknown
15:19 30.2 °F 30.2 °F 29.8 in ESE 3.1 mph 6.8 mph 97% 0 in 28.00 W/m2 unknown
15:24 30.2 °F 30.2 °F 29.8 in East 2.5 mph 3.7 mph 97% 0 in 28.00 W/m2 unknown
15:29 30.2 °F 30.2 °F 29.8 in SSE 2.5 mph 3.7 mph 97% 0 in 28.00 W/m2 unknown
15:34 30.2 °F 30.2 °F 29.8 in ESE 2.5 mph 3.7 mph 97% 0 in 26.00 W/m2 unknown
15:39 30.2 °F 30.2 °F 29.8 in East 1.9 mph 3.1 mph 97% 0 in 23.00 W/m2 unknown
15:44 30.2 °F 30.2 °F 29.8 in ESE 2.5 mph 3.7 mph 97% 0 in 21.00 W/m2 unknown
15:49 30.2 °F 30.2 °F 29.8 in ESE 2.5 mph 5 mph 97% 0 in 18.00 W/m2 unknown
15:54 30.2 °F 30.2 °F 29.8 in East 2.5 mph 5 mph 97% 0 in 16.00 W/m2 unknown
15:59 30.2 °F 30.2 °F 29.9 in SE 2.5 mph 3.7 mph 97% 0 in 14.00 W/m2 unknown
16:04 30.2 °F 30.2 °F 29.9 in East 1.2 mph 3.1 mph 97% 0 in 11.00 W/m2 unknown
16:09 30.2 °F 30.2 °F 29.9 in East 1.2 mph 2.5 mph 97% 0 in 9.00 W/m2 unknown
16:14 30.2 °F 30.2 °F 29.9 in East 1.2 mph 2.5 mph 97% 0 in 5.00 W/m2 unknown
16:19 32 °F 30.2 °F 29.9 in ESE 1.9 mph 3.7 mph 97% 0 in 0.00 W/m2 unknown
16:24 32 °F 30.2 °F 29.9 in SSE 3.1 mph 5 mph 97% 0 in 0.00 W/m2 unknown
16:29 32 °F 30.2 °F 29.9 in SSE 2.5 mph 5 mph 97% 0 in 0.00 W/m2 unknown
16:34 32 °F 30.2 °F 29.9 in East 3.1 mph 5 mph 97% 0 in 0.00 W/m2 unknown
16:39 32 °F 30.2 °F 29.9 in East 2.5 mph 5 mph 97% 0 in 0.00 W/m2 unknown
16:44 32 °F 30.2 °F 29.9 in SSE 1.9 mph 3.7 mph 97% 0 in 0.00 W/m2 unknown
16:49 32 °F 30.2 °F 29.9 in SSE 1.2 mph 3.7 mph 97% 0 in 0.00 W/m2 unknown
16:54 32 °F 30.2 °F 29.9 in SE 3.7 mph 6.2 mph 97% 0 in 0.00 W/m2 unknown
16:59 32 °F 30.2 °F 29.9 in ESE 2.5 mph 6.2 mph 97% 0 in 0.00 W/m2 unknown
17:04 32 °F 30.2 °F 29.9 in ESE 3.7 mph 3.7 mph 97% 0 in 0.00 W/m2 unknown
17:09 32 °F 30.2 °F 29.9 in SE 1.9 mph 3.7 mph 97% 0 in 0.00 W/m2 unknown
17:14 32 °F 30.2 °F 29.9 in East 2.5 mph 3.7 mph 97% 0 in 0.00 W/m2 unknown
17:19 32 °F 30.2 °F 29.9 in East 3.1 mph 5 mph 97% 0 in 0.00 W/m2 unknown
17:24 32 °F 30.2 °F 29.9 in ESE 3.7 mph 5 mph 97% 0 in 0.00 W/m2 unknown
17:29 32 °F 30.2 °F 29.9 in East 2.5 mph 5 mph 97% 0 in 0.00 W/m2 unknown
17:34 32 °F 30.2 °F 29.9 in East 3.7 mph 5 mph 97% 0 in 0.00 W/m2 unknown
17:39 32 °F 30.2 °F 29.9 in ESE 3.1 mph 5 mph 97% 0 in 0.00 W/m2 unknown
17:44 32 °F 30.2 °F 29.9 in East 3.1 mph 3.7 mph 97% 0 in 0.00 W/m2 unknown
17:49 32 °F 30.2 °F 29.9 in ESE 3.1 mph 6.2 mph 97% 0 in 0.00 W/m2 unknown
17:54 32 °F 30.2 °F 29.9 in SE 3.1 mph 6.2 mph 97% 0 in 0.00 W/m2 unknown
17:59 32 °F 30.2 °F 29.9 in East 3.7 mph 6.2 mph 97% 0 in 0.00 W/m2 unknown
18:04 32 °F 30.2 °F 29.9 in East 3.7 mph 5 mph 97% 0 in 0.00 W/m2 unknown
18:09 32 °F 30.2 °F 29.9 in East 3.7 mph 5 mph 97% 0 in 0.00 W/m2 unknown
18:14 32 °F 30.2 °F 29.9 in ESE 2.5 mph 5 mph 97% 0 in 0.00 W/m2 unknown
18:19 32 °F 30.2 °F 29.9 in East 2.5 mph 3.7 mph 97% 0 in 0.00 W/m2 unknown
18:24 32 °F 30.2 °F 29.9 in ENE 2.5 mph 3.7 mph 97% 0 in 0.00 W/m2 unknown
18:29 32 °F 30.2 °F 29.9 in ESE 1.9 mph 3.1 mph 97% 0 in 0.00 W/m2 unknown
18:34 32 °F 30.2 °F 29.9 in SSE 1.2 mph 2.5 mph 97% 0 in 0.00 W/m2 unknown
18:39 32 °F 30.2 °F 29.9 in SE 1.9 mph 3.7 mph 97% 0 in 0.00 W/m2 unknown
18:44 32 °F 30.2 °F 29.9 in SE 3.1 mph 5 mph 97% 0 in 0.00 W/m2 unknown
18:49 32 °F 30.2 °F 29.9 in SSE 1.9 mph 5 mph 97% 0 in 0.00 W/m2 unknown
18:54 32 °F 30.2 °F 29.9 in South 2.5 mph 3.7 mph 97% 0 in 0.00 W/m2 unknown
18:59 32 °F 30.2 °F 29.9 in South 2.5 mph 3.7 mph 97% 0 in 0.00 W/m2 unknown
19:04 32 °F 30.2 °F 29.9 in SSE 1.2 mph 3.7 mph 97% 0 in 0.00 W/m2 unknown
19:09 32 °F 30.2 °F 29.9 in ESE 2.5 mph 3.7 mph 97% 0 in 0.00 W/m2 unknown
19:14 32 °F 30.2 °F 29.9 in ESE 2.5 mph 3.7 mph 97% 0 in 0.00 W/m2 unknown
19:19 32 °F 30.2 °F 29.9 in East 2.5 mph 3.7 mph 97% 0 in 0.00 W/m2 unknown
19:24 32 °F 30.2 °F 29.9 in East 2.5 mph 3.7 mph 97% 0 in 0.00 W/m2 unknown
19:29 32 °F 30.2 °F 29.9 in ESE 3.7 mph 5 mph 97% 0 in 0.00 W/m2 unknown
19:34 32 °F 30.2 °F 29.9 in ESE 3.7 mph 5 mph 97% 0 in 0.00 W/m2 unknown
19:39 32 °F 30.2 °F 29.9 in East 3.1 mph 5 mph 97% 0 in 0.00 W/m2 unknown
19:44 32 °F 30.2 °F 29.9 in East 3.7 mph 5 mph 97% 0 in 0.00 W/m2 unknown
19:49 32 °F 30.2 °F 29.9 in East 1.9 mph 5 mph 97% 0 in 0.00 W/m2 unknown
19:54 32 °F 30.2 °F 29.9 in ESE 3.1 mph 3.7 mph 97% 0 in 0.00 W/m2 unknown
19:59 32 °F 30.2 °F 29.9 in East 3.1 mph 3.7 mph 97% 0 in 0.00 W/m2 unknown
20:04 32 °F 30.2 °F 29.9 in East 1.9 mph 3.7 mph 97% 0 in 0.00 W/m2 unknown
20:09 32 °F 30.2 °F 29.9 in East 1.9 mph 3.7 mph 97% 0 in 0.00 W/m2 unknown
20:14 32 °F 30.2 °F 29.9 in ENE 3.1 mph 3.7 mph 97% 0 in 0.00 W/m2 unknown
20:19 32 °F 30.2 °F 29.9 in ENE 3.7 mph 5 mph 97% 0 in 0.00 W/m2 unknown
20:24 32 °F 30.2 °F 29.9 in ENE 3.7 mph 5 mph 97% 0 in 0.00 W/m2 unknown
20:29 32 °F 30.2 °F 29.9 in ENE 3.1 mph 5 mph 97% 0 in 0.00 W/m2 unknown
20:34 32 °F 30.2 °F 29.9 in ENE 3.1 mph 5 mph 97% 0 in 0.00 W/m2 unknown
20:39 32 °F 30.2 °F 29.9 in ENE 2.5 mph 3.7 mph 97% 0 in 0.00 W/m2 unknown
20:44 32 °F 30.2 °F 29.9 in ENE 2.5 mph 3.7 mph 97% 0 in 0.00 W/m2 unknown
20:49 32 °F 30.2 °F 29.9 in NE 2.5 mph 3.7 mph 97% 0 in 0.00 W/m2 unknown
20:54 32 °F 30.2 °F 29.9 in ENE 2.5 mph 3.7 mph 97% 0 in 0.00 W/m2 unknown
20:59 32 °F 30.2 °F 29.9 in ENE 1.9 mph 3.7 mph 97% 0 in 0.00 W/m2 unknown
21:04 32 °F 30.2 °F 29.9 in ENE 1.2 mph 3.1 mph 97% 0 in 0.00 W/m2 unknown
21:09 32 °F 30.2 °F 29.9 in ENE 3.1 mph 3.7 mph 97% 0 in 0.00 W/m2 unknown
21:14 32 °F 30.2 °F 29.9 in NE 2.5 mph 3.7 mph 97% 0 in 0.00 W/m2 unknown
21:19 32 °F 30.2 °F 29.9 in NE 1.9 mph 3.7 mph 97% 0 in 0.00 W/m2 unknown
21:24 32 °F 30.2 °F 29.9 in NE 2.5 mph 3.7 mph 97% 0 in 0.00 W/m2 unknown
21:29 32 °F 30.2 °F 29.9 in ENE 2.5 mph 3.7 mph 97% 0 in 0.00 W/m2 unknown
21:34 32 °F 30.2 °F 29.9 in NE 2.5 mph 3.7 mph 97% 0 in 0.00 W/m2 unknown
21:39 32 °F 30.2 °F 29.9 in East 3.1 mph 3.7 mph 97% 0 in 0.00 W/m2 unknown
21:44 32 °F 30.2 °F 29.9 in East 1.9 mph 3.7 mph 97% 0 in 0.00 W/m2 unknown
21:49 32 °F 30.2 °F 29.9 in East 1.9 mph 2.5 mph 97% 0 in 0.00 W/m2 unknown
21:54 32 °F 30.2 °F 29.9 in ENE 2.5 mph 3.7 mph 97% 0 in 0.00 W/m2 unknown
21:59 32 °F 30.2 °F 29.9 in ENE 3.1 mph 3.7 mph 97% 0 in 0.00 W/m2 unknown
22:04 32 °F 30.2 °F 29.9 in ENE 3.1 mph 3.7 mph 97% 0 in 0.00 W/m2 unknown
22:09 32 °F 30.2 °F 29.9 in ENE 3.1 mph 3.7 mph 97% 0 in 0.00 W/m2 unknown
22:14 32 °F 30.2 °F 29.9 in East 1.9 mph 3.1 mph 97% 0 in 0.00 W/m2 unknown
22:19 32 °F 30.2 °F 29.9 in NNE 1.9 mph 3.7 mph 97% 0 in 0.00 W/m2 unknown
22:24 32 °F 30.2 °F 29.9 in NE 3.1 mph 3.7 mph 97% 0 in 0.00 W/m2 unknown
22:28 32 °F 30.2 °F 29.9 in East 3.1 mph 5 mph 97% 0 in 0.00 W/m2 unknown
22:34 32 °F 30.2 °F 29.9 in ENE 3.1 mph 5 mph 97% 0 in 0.00 W/m2 unknown
22:39 32 °F 30.2 °F 29.9 in NE 3.1 mph 5 mph 97% 0 in 0.00 W/m2 unknown
22:44 32 °F 30.2 °F 29.9 in NE 2.5 mph 3.7 mph 97% 0 in 0.00 W/m2 unknown
22:49 32 °F 30.2 °F 29.9 in ENE 2.5 mph 3.7 mph 97% 0 in 0.00 W/m2 unknown
22:54 32 °F 30.2 °F 29.9 in ENE 2.5 mph 3.7 mph 97% 0 in 0.00 W/m2 unknown
22:59 32 °F 30.2 °F 29.9 in NE 2.5 mph 3.7 mph 97% 0 in 0.00 W/m2 unknown
23:04 32 °F 30.2 °F 29.9 in NE 2.5 mph 3.7 mph 97% 0 in 0.00 W/m2 unknown
23:09 32 °F 30.2 °F 29.9 in NE 3.1 mph 3.7 mph 97% 0 in 0.00 W/m2 unknown
23:14 32 °F 30.2 °F 29.9 in NE 3.1 mph 3.7 mph 97% 0 in 0.00 W/m2 unknown
23:19 32 °F 30.2 °F 29.9 in ENE 2.5 mph 3.7 mph 97% 0 in 0.00 W/m2 unknown
23:24 32 °F 30.2 °F 29.9 in NE 3.1 mph 3.7 mph 97% 0 in 0.00 W/m2 unknown
23:29 32 °F 30.2 °F 29.9 in ENE 3.1 mph 3.7 mph 97% 0 in 0.00 W/m2 unknown
23:34 32 °F 30.2 °F 29.9 in NE 2.5 mph 3.7 mph 97% 0 in 0.00 W/m2 unknown
23:39 32 °F 30.2 °F 29.9 in NE 1.9 mph 3.7 mph 97% 0 in 0.00 W/m2 unknown
23:44 32 °F 30.2 °F 29.9 in NE 1.9 mph 3.7 mph 97% 0 in 0.00 W/m2 unknown
23:49 32 °F 30.2 °F 29.9 in NE 2.5 mph 3.7 mph 97% 0 in 0.00 W/m2 unknown
23:54 32 °F 30.2 °F 29.9 in NE 3.1 mph 3.7 mph 97% 0 in 0.00 W/m2 unknown
23:59 32 °F 30.2 °F 29.9 in NE 3.1 mph 3.7 mph 97% 0 in 0.00 W/m2 unknown
Stazione Meteorologica MeteoMincio Rivalta s/M (MN)
Con i complimenti di Weather Underground - 4 mb



METEO PILLOLE
Nevicata con fiocchi più grandi
Montana - USA
Nella spettacolare nevicata del 1994 caddero fiocchi del diametro di 40 cm.
Share

Non seguire questo link o sarai bannato dal sito!